sensor_id;sensor_type;location;lat;lon;timestamp;P1;durP1;ratioP1;P2;durP2;ratioP2
19863;SDS011;10094;48.820;9.226;2023-02-03T00:00:35;3.60;;;1.20;;
19863;SDS011;10094;48.820;9.226;2023-02-03T00:07:17;2.40;;;1.20;;
19863;SDS011;10094;48.820;9.226;2023-02-03T00:14:00;2.10;;;1.25;;
19863;SDS011;10094;48.820;9.226;2023-02-03T00:20:42;2.15;;;1.20;;
19863;SDS011;10094;48.820;9.226;2023-02-03T00:27:26;2.25;;;1.23;;
19863;SDS011;10094;48.820;9.226;2023-02-03T00:34:08;2.03;;;1.15;;
19863;SDS011;10094;48.820;9.226;2023-02-03T00:40:51;0.90;;;0.90;;
19863;SDS011;10094;48.820;9.226;2023-02-03T00:47:34;2.70;;;1.00;;
19863;SDS011;10094;48.820;9.226;2023-02-03T00:54:16;1.20;;;1.10;;
19863;SDS011;10094;48.820;9.226;2023-02-03T01:00:58;2.95;;;1.25;;
19863;SDS011;10094;48.820;9.226;2023-02-03T01:07:41;1.73;;;1.05;;
19863;SDS011;10094;48.820;9.226;2023-02-03T01:14:23;0.93;;;0.90;;
19863;SDS011;10094;48.820;9.226;2023-02-03T01:21:07;1.67;;;1.10;;
19863;SDS011;10094;48.820;9.226;2023-02-03T01:27:50;1.23;;;1.10;;
19863;SDS011;10094;48.820;9.226;2023-02-03T01:34:33;2.55;;;1.20;;
19863;SDS011;10094;48.820;9.226;2023-02-03T01:41:16;2.25;;;1.20;;
19863;SDS011;10094;48.820;9.226;2023-02-03T01:48:01;1.67;;;1.15;;
19863;SDS011;10094;48.820;9.226;2023-02-03T01:54:45;1.80;;;1.20;;
19863;SDS011;10094;48.820;9.226;2023-02-03T02:01:29;2.42;;;0.98;;
19863;SDS011;10094;48.820;9.226;2023-02-03T02:08:14;1.67;;;1.10;;
19863;SDS011;10094;48.820;9.226;2023-02-03T02:14:58;1.63;;;1.20;;
19863;SDS011;10094;48.820;9.226;2023-02-03T02:50:28;2.20;;;1.10;;
19863;SDS011;10094;48.820;9.226;2023-02-03T02:57:15;2.75;;;1.48;;
19863;SDS011;10094;48.820;9.226;2023-02-03T03:04:02;2.80;;;1.30;;
19863;SDS011;10094;48.820;9.226;2023-02-03T03:10:48;4.63;;;1.30;;
19863;SDS011;10094;48.820;9.226;2023-02-03T03:17:35;2.42;;;1.50;;
19863;SDS011;10094;48.820;9.226;2023-02-03T03:24:32;2.35;;;1.50;;
19863;SDS011;10094;48.820;9.226;2023-02-03T03:31:19;1.42;;;1.25;;
19863;SDS011;10094;48.820;9.226;2023-02-03T03:38:05;1.25;;;1.15;;
19863;SDS011;10094;48.820;9.226;2023-02-03T03:44:58;3.70;;;1.45;;
19863;SDS011;10094;48.820;9.226;2023-02-03T03:51:43;1.45;;;1.13;;
19863;SDS011;10094;48.820;9.226;2023-02-03T03:58:30;1.85;;;1.20;;
19863;SDS011;10094;48.820;9.226;2023-02-03T04:05:13;3.13;;;1.30;;
19863;SDS011;10094;48.820;9.226;2023-02-03T04:11:56;1.60;;;0.93;;
19863;SDS011;10094;48.820;9.226;2023-02-03T04:18:41;1.30;;;1.08;;
19863;SDS011;10094;48.820;9.226;2023-02-03T04:25:24;1.83;;;1.00;;
19863;SDS011;10094;48.820;9.226;2023-02-03T04:32:06;2.38;;;1.10;;
19863;SDS011;10094;48.820;9.226;2023-02-03T04:38:49;1.38;;;1.00;;
19863;SDS011;10094;48.820;9.226;2023-02-03T04:45:32;1.70;;;0.90;;
19863;SDS011;10094;48.820;9.226;2023-02-03T04:52:14;1.80;;;0.90;;
19863;SDS011;10094;48.820;9.226;2023-02-03T04:58:56;4.18;;;1.00;;
19863;SDS011;10094;48.820;9.226;2023-02-03T05:05:39;0.90;;;0.90;;
19863;SDS011;10094;48.820;9.226;2023-02-03T05:12:21;2.25;;;1.00;;
19863;SDS011;10094;48.820;9.226;2023-02-03T05:19:03;2.65;;;1.10;;
19863;SDS011;10094;48.820;9.226;2023-02-03T05:25:46;2.03;;;1.10;;
19863;SDS011;10094;48.820;9.226;2023-02-03T05:32:28;4.35;;;1.52;;
19863;SDS011;10094;48.820;9.226;2023-02-03T05:39:10;5.13;;;1.48;;
19863;SDS011;10094;48.820;9.226;2023-02-03T05:45:53;7.07;;;1.70;;
19863;SDS011;10094;48.820;9.226;2023-02-03T05:52:35;3.30;;;1.55;;
19863;SDS011;10094;48.820;9.226;2023-02-03T05:59:18;1.95;;;1.35;;
19863;SDS011;10094;48.820;9.226;2023-02-03T06:06:00;1.63;;;1.35;;
19863;SDS011;10094;48.820;9.226;2023-02-03T06:12:42;1.88;;;1.00;;
19863;SDS011;10094;48.820;9.226;2023-02-03T06:19:25;3.13;;;1.20;;
19863;SDS011;10094;48.820;9.226;2023-02-03T06:26:07;1.73;;;1.23;;
19863;SDS011;10094;48.820;9.226;2023-02-03T06:32:50;3.13;;;1.50;;
19863;SDS011;10094;48.820;9.226;2023-02-03T06:39:32;4.95;;;1.23;;
19863;SDS011;10094;48.820;9.226;2023-02-03T06:46:14;3.75;;;1.75;;
19863;SDS011;10094;48.820;9.226;2023-02-03T06:52:57;4.05;;;2.25;;
19863;SDS011;10094;48.820;9.226;2023-02-03T06:59:39;3.25;;;1.73;;
19863;SDS011;10094;48.820;9.226;2023-02-03T07:06:21;4.40;;;1.90;;
19863;SDS011;10094;48.820;9.226;2023-02-03T07:13:04;2.13;;;1.50;;
19863;SDS011;10094;48.820;9.226;2023-02-03T07:19:47;5.78;;;1.90;;
19863;SDS011;10094;48.820;9.226;2023-02-03T07:26:30;2.92;;;1.30;;
19863;SDS011;10094;48.820;9.226;2023-02-03T07:33:12;1.58;;;1.40;;
19863;SDS011;10094;48.820;9.226;2023-02-03T07:39:55;4.93;;;1.77;;
19863;SDS011;10094;48.820;9.226;2023-02-03T07:46:37;5.05;;;1.50;;
19863;SDS011;10094;48.820;9.226;2023-02-03T07:53:25;4.00;;;1.83;;
19863;SDS011;10094;48.820;9.226;2023-02-03T08:00:08;3.63;;;1.65;;
19863;SDS011;10094;48.820;9.226;2023-02-03T08:06:55;5.03;;;2.20;;
19863;SDS011;10094;48.820;9.226;2023-02-03T08:13:37;3.72;;;1.90;;
19863;SDS011;10094;48.820;9.226;2023-02-03T08:20:20;4.80;;;1.70;;
19863;SDS011;10094;48.820;9.226;2023-02-03T08:27:02;5.68;;;1.60;;
19863;SDS011;10094;48.820;9.226;2023-02-03T08:33:45;3.17;;;1.80;;
19863;SDS011;10094;48.820;9.226;2023-02-03T08:40:27;3.85;;;1.88;;
19863;SDS011;10094;48.820;9.226;2023-02-03T08:47:10;4.65;;;1.90;;
19863;SDS011;10094;48.820;9.226;2023-02-03T08:53:53;7.28;;;2.72;;
19863;SDS011;10094;48.820;9.226;2023-02-03T09:00:35;3.13;;;2.40;;
19863;SDS011;10094;48.820;9.226;2023-02-03T09:07:17;3.65;;;2.10;;
19863;SDS011;10094;48.820;9.226;2023-02-03T09:14:01;3.80;;;1.80;;
19863;SDS011;10094;48.820;9.226;2023-02-03T09:20:43;3.63;;;2.08;;
19863;SDS011;10094;48.820;9.226;2023-02-03T09:27:25;3.35;;;2.00;;
19863;SDS011;10094;48.820;9.226;2023-02-03T09:34:08;4.30;;;2.20;;
19863;SDS011;10094;48.820;9.226;2023-02-03T09:40:51;3.83;;;2.03;;
19863;SDS011;10094;48.820;9.226;2023-02-03T09:47:51;6.47;;;2.33;;
19863;SDS011;10094;48.820;9.226;2023-02-03T09:54:38;5.45;;;1.63;;
19863;SDS011;10094;48.820;9.226;2023-02-03T10:01:27;2.85;;;1.70;;
19863;SDS011;10094;48.820;9.226;2023-02-03T10:15:37;4.32;;;1.75;;
19863;SDS011;10094;48.820;9.226;2023-02-03T10:22:36;3.53;;;1.70;;
19863;SDS011;10094;48.820;9.226;2023-02-03T10:29:25;3.40;;;1.55;;
19863;SDS011;10094;48.820;9.226;2023-02-03T10:36:27;2.70;;;1.65;;
19863;SDS011;10094;48.820;9.226;2023-02-03T10:43:23;3.90;;;2.15;;
19863;SDS011;10094;48.820;9.226;2023-02-03T10:50:25;5.10;;;1.70;;
19863;SDS011;10094;48.820;9.226;2023-02-03T10:57:14;3.88;;;1.70;;
19863;SDS011;10094;48.820;9.226;2023-02-03T11:04:00;4.60;;;1.88;;
19863;SDS011;10094;48.820;9.226;2023-02-03T11:10:44;3.30;;;1.40;;
19863;SDS011;10094;48.820;9.226;2023-02-03T11:17:27;4.85;;;1.98;;
19863;SDS011;10094;48.820;9.226;2023-02-03T11:24:16;1.98;;;1.00;;
19863;SDS011;10094;48.820;9.226;2023-02-03T11:31:01;0.90;;;0.90;;
19863;SDS011;10094;48.820;9.226;2023-02-03T11:37:45;1.40;;;0.80;;
19863;SDS011;10094;48.820;9.226;2023-02-03T11:44:29;2.08;;;1.40;;
19863;SDS011;10094;48.820;9.226;2023-02-03T11:51:23;0.80;;;0.68;;
19863;SDS011;10094;48.820;9.226;2023-02-03T11:58:54;0.80;;;0.80;;
19863;SDS011;10094;48.820;9.226;2023-02-03T12:05:40;1.58;;;1.00;;
19863;SDS011;10094;48.820;9.226;2023-02-03T12:26:30;1.75;;;1.15;;
19863;SDS011;10094;48.820;9.226;2023-02-03T12:33:27;2.15;;;0.90;;
19863;SDS011;10094;48.820;9.226;2023-02-03T12:40:38;1.25;;;0.90;;
19863;SDS011;10094;48.820;9.226;2023-02-03T12:47:44;0.80;;;0.77;;
19863;SDS011;10094;48.820;9.226;2023-02-03T12:54:41;1.33;;;0.80;;
19863;SDS011;10094;48.820;9.226;2023-02-03T13:01:36;1.00;;;0.90;;
19863;SDS011;10094;48.820;9.226;2023-02-03T13:22:08;4.10;;;1.00;;
19863;SDS011;10094;48.820;9.226;2023-02-03T13:35:54;2.55;;;0.90;;
19863;SDS011;10094;48.820;9.226;2023-02-03T13:42:44;1.20;;;1.00;;
19863;SDS011;10094;48.820;9.226;2023-02-03T13:49:33;2.60;;;1.10;;
19863;SDS011;10094;48.820;9.226;2023-02-03T13:56:21;2.08;;;1.10;;
19863;SDS011;10094;48.820;9.226;2023-02-03T14:03:11;2.58;;;1.20;;
19863;SDS011;10094;48.820;9.226;2023-02-03T14:16:54;1.70;;;1.10;;
19863;SDS011;10094;48.820;9.226;2023-02-03T14:23:48;1.35;;;1.00;;
19863;SDS011;10094;48.820;9.226;2023-02-03T14:30:51;1.00;;;0.73;;
19863;SDS011;10094;48.820;9.226;2023-02-03T14:37:54;4.30;;;1.30;;
19863;SDS011;10094;48.820;9.226;2023-02-03T14:44:49;3.15;;;1.30;;
19863;SDS011;10094;48.820;9.226;2023-02-03T14:59:09;1.58;;;1.00;;
19863;SDS011;10094;48.820;9.226;2023-02-03T15:06:02;1.02;;;0.82;;
19863;SDS011;10094;48.820;9.226;2023-02-03T15:12:49;3.72;;;1.35;;
19863;SDS011;10094;48.820;9.226;2023-02-03T15:19:33;1.60;;;0.80;;
19863;SDS011;10094;48.820;9.226;2023-02-03T15:26:25;1.00;;;0.90;;
19863;SDS011;10094;48.820;9.226;2023-02-03T15:33:11;3.50;;;0.93;;
19863;SDS011;10094;48.820;9.226;2023-02-03T15:40:02;0.95;;;0.70;;
19863;SDS011;10094;48.820;9.226;2023-02-03T15:47:18;3.38;;;1.00;;
19863;SDS011;10094;48.820;9.226;2023-02-03T15:54:35;1.88;;;1.38;;
19863;SDS011;10094;48.820;9.226;2023-02-03T16:01:22;1.30;;;1.20;;
19863;SDS011;10094;48.820;9.226;2023-02-03T16:15:32;1.58;;;1.42;;
19863;SDS011;10094;48.820;9.226;2023-02-03T16:22:29;1.33;;;1.23;;
19863;SDS011;10094;48.820;9.226;2023-02-03T16:29:16;2.45;;;1.80;;
19863;SDS011;10094;48.820;9.226;2023-02-03T16:36:17;1.88;;;1.50;;
19863;SDS011;10094;48.820;9.226;2023-02-03T16:43:18;1.67;;;1.30;;
19863;SDS011;10094;48.820;9.226;2023-02-03T16:50:20;1.20;;;1.10;;
19863;SDS011;10094;48.820;9.226;2023-02-03T16:57:23;1.70;;;1.25;;
19863;SDS011;10094;48.820;9.226;2023-02-03T17:04:06;3.42;;;1.23;;
19863;SDS011;10094;48.820;9.226;2023-02-03T17:10:49;3.08;;;2.10;;
19863;SDS011;10094;48.820;9.226;2023-02-03T17:17:32;2.30;;;1.63;;
19863;SDS011;10094;48.820;9.226;2023-02-03T17:24:14;1.30;;;1.15;;
19863;SDS011;10094;48.820;9.226;2023-02-03T17:37:40;2.10;;;1.10;;
19863;SDS011;10094;48.820;9.226;2023-02-03T17:44:22;1.85;;;1.27;;
19863;SDS011;10094;48.820;9.226;2023-02-03T17:51:22;1.50;;;1.30;;
19863;SDS011;10094;48.820;9.226;2023-02-03T17:58:24;2.35;;;1.27;;
19863;SDS011;10094;48.820;9.226;2023-02-03T18:05:06;1.52;;;1.17;;
19863;SDS011;10094;48.820;9.226;2023-02-03T18:11:49;1.83;;;1.40;;
19863;SDS011;10094;48.820;9.226;2023-02-03T18:18:32;1.83;;;1.60;;
19863;SDS011;10094;48.820;9.226;2023-02-03T18:25:15;2.28;;;1.45;;
19863;SDS011;10094;48.820;9.226;2023-02-03T18:31:58;1.92;;;1.45;;
19863;SDS011;10094;48.820;9.226;2023-02-03T18:38:41;2.30;;;1.20;;
19863;SDS011;10094;48.820;9.226;2023-02-03T18:45:25;1.27;;;1.02;;
19863;SDS011;10094;48.820;9.226;2023-02-03T18:52:07;1.55;;;1.40;;
19863;SDS011;10094;48.820;9.226;2023-02-03T18:58:50;1.73;;;1.38;;
19863;SDS011;10094;48.820;9.226;2023-02-03T19:05:32;1.55;;;1.42;;
19863;SDS011;10094;48.820;9.226;2023-02-03T19:12:15;2.05;;;1.15;;
19863;SDS011;10094;48.820;9.226;2023-02-03T19:18:57;3.13;;;1.60;;
19863;SDS011;10094;48.820;9.226;2023-02-03T19:25:39;1.48;;;1.38;;
19863;SDS011;10094;48.820;9.226;2023-02-03T19:32:22;2.08;;;1.50;;
19863;SDS011;10094;48.820;9.226;2023-02-03T19:39:13;1.50;;;1.40;;
19863;SDS011;10094;48.820;9.226;2023-02-03T19:46:02;1.38;;;1.27;;
19863;SDS011;10094;48.820;9.226;2023-02-03T19:52:45;1.45;;;1.35;;
19863;SDS011;10094;48.820;9.226;2023-02-03T19:59:29;1.63;;;1.20;;
19863;SDS011;10094;48.820;9.226;2023-02-03T20:06:11;1.73;;;1.23;;
19863;SDS011;10094;48.820;9.226;2023-02-03T20:12:54;1.10;;;1.00;;
19863;SDS011;10094;48.820;9.226;2023-02-03T20:19:36;1.67;;;1.50;;
19863;SDS011;10094;48.820;9.226;2023-02-03T20:26:19;4.03;;;2.28;;
19863;SDS011;10094;48.820;9.226;2023-02-03T20:33:01;1.58;;;1.38;;
19863;SDS011;10094;48.820;9.226;2023-02-03T20:39:45;1.30;;;1.20;;
19863;SDS011;10094;48.820;9.226;2023-02-03T20:46:31;1.67;;;1.35;;
19863;SDS011;10094;48.820;9.226;2023-02-03T20:53:15;2.22;;;1.80;;
19863;SDS011;10094;48.820;9.226;2023-02-03T21:00:19;1.27;;;1.17;;
19863;SDS011;10094;48.820;9.226;2023-02-03T21:07:13;1.15;;;1.05;;
19863;SDS011;10094;48.820;9.226;2023-02-03T21:13:57;1.00;;;0.95;;
19863;SDS011;10094;48.820;9.226;2023-02-03T21:20:43;4.20;;;1.38;;
19863;SDS011;10094;48.820;9.226;2023-02-03T21:27:27;1.90;;;1.50;;
19863;SDS011;10094;48.820;9.226;2023-02-03T21:41:16;1.70;;;1.52;;
19863;SDS011;10094;48.820;9.226;2023-02-03T21:48:00;1.90;;;1.80;;
19863;SDS011;10094;48.820;9.226;2023-02-03T21:54:43;2.70;;;2.50;;
19863;SDS011;10094;48.820;9.226;2023-02-03T22:01:26;3.25;;;2.75;;
19863;SDS011;10094;48.820;9.226;2023-02-03T22:14:59;4.20;;;3.78;;
19863;SDS011;10094;48.820;9.226;2023-02-03T22:21:42;3.78;;;3.40;;
19863;SDS011;10094;48.820;9.226;2023-02-03T22:28:25;3.65;;;3.10;;
19863;SDS011;10094;48.820;9.226;2023-02-03T22:35:07;4.07;;;3.67;;
19863;SDS011;10094;48.820;9.226;2023-02-03T22:41:50;4.55;;;3.25;;
19863;SDS011;10094;48.820;9.226;2023-02-03T22:48:33;4.18;;;3.55;;
19863;SDS011;10094;48.820;9.226;2023-02-03T22:55:15;4.93;;;3.75;;
19863;SDS011;10094;48.820;9.226;2023-02-03T23:01:58;4.78;;;4.30;;
19863;SDS011;10094;48.820;9.226;2023-02-03T23:08:40;6.63;;;4.30;;
19863;SDS011;10094;48.820;9.226;2023-02-03T23:15:22;5.68;;;3.67;;
19863;SDS011;10094;48.820;9.226;2023-02-03T23:22:05;5.07;;;4.57;;
19863;SDS011;10094;48.820;9.226;2023-02-03T23:28:47;4.35;;;3.92;;
19863;SDS011;10094;48.820;9.226;2023-02-03T23:35:30;6.10;;;4.10;;
19863;SDS011;10094;48.820;9.226;2023-02-03T23:42:27;5.57;;;4.25;;
19863;SDS011;10094;48.820;9.226;2023-02-03T23:49:09;5.18;;;3.80;;
19863;SDS011;10094;48.820;9.226;2023-02-03T23:55:52;9.10;;;6.47;;
